St. Petersburg, FL

3:23 AM EDT on October 31, 2014 (GMT -0400)
Municipal Marina | Change Station
CLOSE
Current Station
Personal Weather Station
Location: St. Petersburg, FL
Elevation: 0 ft
Nearby Weather Stations

Elev 0 ft 27.77 °N, 82.63 °W | Updated 1 minute ago

Overcast
Overcast
72.3 °F
Feels Like 71 °F
N
-
Wind Variable Wind from North

Today
High -- | Low -- °F
--% Chance of Precip.
Yesterday
High -- | Low -- °F
Precip. -- in
7:40 AM 6:47 PM
First Quarter, 52% visible
Pressure 29.85 in
Visibility 10.0 miles
Clouds Scattered Clouds 3800 ft
Mostly Cloudy 5000 ft
Overcast 6500 ft
Heat Index 71 °F
Dew Point 68 °F
Humidity 85%
Rainfall -999.00 in
Snow Depth Not available.
UV 0 out of 12
Pollen 4.10 out of 12
Air Quality Not available.
Flu Activity Not available.
METAR KSPG 310653Z AUTO 02005KT 10SM SCT038 BKN050 OVC065 23/21 A2985 RMK AO2 SLP108 T02280206

More Conditions Fewer Conditions

Pressure 29.85 in
Visibility 10.0 miles
Clouds Scattered Clouds 3800 ft
Mostly Cloudy 5000 ft
Overcast 6500 ft
Heat Index 71 °F
Dew Point 68 °F
Humidity 85%
Rainfall -999.00 in
Snow Depth Not available.
UV 0 out of 12
Pollen 4.10 out of 12
Air Quality Not available.
Flu Activity Not available.
METAR KSPG 310653Z AUTO 02005KT 10SM SCT038 BKN050 OVC065 23/21 A2985 RMK AO2 SLP108 T02280206

More Conditions Fewer Conditions

10-Day Weather Forecast

Almanac

Astronomy

Oct. 31, 2014 Rise Set
Actual Time
Civil Twilight
Nautical Twilight
Astronomical Twilight
Moon
Length of Visible Light
Length of Day
Tomorrow will be .
, % of the Moon is Illuminated

Today's Extremes

State Highs State Lows

Community

WunderPhotos

Upload Photos

1,766,573 photos uploaded!

WunderBlogs® & News

Nearby

Air Quality

  Air Quality AQ Index Pollutant
Not available.

Snow Depth

Station Depth Elevation

Earthquake Activity

City Distance Mag. Time & Date
Minimum magnitude displayed is 2.5.

Coastal Water Temperatures

Place Temperature

Nearby Weather Stations